Time;durP1;ratioP1;P1;durP2;ratioP2;P2;SDS_P1;SDS_P2;PMS_P1;PMS_P2;Temp;Humidity;BMP_temperature;BMP_pressure;BME280_temperature;BME280_humidity;BME280_pressure;Samples;Min_cycle;Max_cycle;Signal;HPM_P1;HPM_P2
2022/11/15 00:01:27;;;;;;;;;;;;;;;14.82;75.35;99986.44;5055744;28;960;-65
2022/11/15 00:03:52;;;;;;;;;;;;;;;14.80;75.00;99985.97;5055403;28;1201;-65
2022/11/15 00:06:17;;;;;;;;;;;;;;;14.80;75.43;99980.47;5055254;28;1907;-65
2022/11/15 00:08:42;;;;;;;;;;;;;;;14.82;75.17;99981.75;5055490;28;819;-65
2022/11/15 00:11:09;;;;;;;;;;;;;;;14.81;75.11;99987.56;5055560;28;833;-65
2022/11/15 00:13:34;;;;;;;;;;;;;;;14.80;74.45;99975.75;5055322;28;1204;-65
2022/11/15 00:16:00;;;;;;;;;;;;;;;14.79;75.31;99974.16;5055045;28;932;-65
2022/11/15 00:18:26;;;;;;;;;;;;;;;14.81;74.40;99971.03;5055204;28;928;-65
2022/11/15 00:20:51;;;;;;;;;;;;;;;14.80;74.43;99978.50;5055164;28;963;-65
2022/11/15 00:23:16;;;;;;;;;;;;;;;14.80;74.73;99975.75;5055123;28;1197;-65
2022/11/15 00:25:41;;;;;;;;;;;;;;;14.81;74.50;99977.38;5055207;28;1894;-65
2022/11/15 00:28:06;;;;;;;;;;;;;;;14.81;74.96;99976.56;5054851;28;1040;-64
2022/11/15 00:30:31;;;;;;;;;;;;;;;14.79;74.73;99968.63;5055090;28;999;-65
2022/11/15 00:33:00;;;;;;;;;;;;;;;14.80;74.64;99969.44;5054777;28;1314;-65
2022/11/15 00:35:26;;;;;;;;;;;;;;;14.81;74.89;99960.84;5055017;28;979;-65
2022/11/15 00:37:52;;;;;;;;;;;;;;;14.81;75.25;99971.03;5054855;28;814;-65
2022/11/15 00:40:17;;;;;;;;;;;;;;;14.81;74.98;99971.84;5054844;28;896;-65
2022/11/15 00:42:42;;;;;;;;;;;;;;;14.81;74.38;99973.78;5035726;28;2357;-64
2022/11/15 00:45:08;;;;;;;;;;;;;;;14.80;74.67;99974.97;5037881;28;1906;-65
2022/11/15 00:47:33;;;;;;;;;;;;;;;14.81;74.26;99974.59;5054484;28;879;-65
2022/11/15 00:49:58;;;;;;;;;;;;;;;14.79;75.28;99974.16;5054558;28;931;-65
2022/11/15 00:52:23;;;;;;;;;;;;;;;14.82;74.63;99967.16;5054678;28;979;-65
2022/11/15 00:54:49;;;;;;;;;;;;;;;14.81;74.32;99971.03;5054530;28;1110;-65
2022/11/15 00:57:14;;;;;;;;;;;;;;;14.82;75.07;99975.41;5054314;28;889;-65
2022/11/15 00:59:39;;;;;;;;;;;;;;;14.81;75.25;99976.56;5054433;28;983;-64
2022/11/15 01:02:04;;;;;;;;;;;;;;;14.79;74.30;99974.16;5054520;28;845;-65
2022/11/15 01:04:29;;;;;;;;;;;;;;;14.81;74.81;99979.31;5053821;28;1204;-65
2022/11/15 01:06:54;;;;;;;;;;;;;;;14.81;74.69;99973.78;5054089;28;1943;-65
2022/11/15 01:09:20;;;;;;;;;;;;;;;14.81;75.01;99971.84;5054289;28;975;-65
2022/11/15 01:11:45;;;;;;;;;;;;;;;14.79;74.71;99974.16;5054290;28;860;-65
2022/11/15 01:14:10;;;;;;;;;;;;;;;14.81;75.17;99971.03;5054142;28;1219;-65
2022/11/15 01:16:35;;;;;;;;;;;;;;;14.80;74.49;99963.94;5053837;28;1035;-64
2022/11/15 01:19:00;;;;;;;;;;;;;;;14.81;75.14;99960.84;5054039;28;983;-65
2022/11/15 01:21:25;;;;;;;;;;;;;;;14.80;75.30;99952.91;5054058;28;983;-65
2022/11/15 01:23:55;;;;;;;;;;;;;;;14.81;75.35;99949.00;5054012;28;1199;-65
2022/11/15 01:26:20;;;;;;;;;;;;;;;14.82;75.17;99956.13;5053733;28;1957;-65
2022/11/15 01:28:45;;;;;;;;;;;;;;;14.80;75.08;99952.91;5053960;28;983;-65
2022/11/15 01:31:15;;;;;;;;;;;;;;;14.80;74.55;99950.94;5054003;28;798;-65
2022/11/15 01:33:41;;;;;;;;;;;;;;;14.81;75.26;99949.00;5053664;28;1224;-65
2022/11/15 01:36:07;;;;;;;;;;;;;;;14.79;75.37;99943.84;5053509;28;738;-65
2022/11/15 01:38:33;;;;;;;;;;;;;;;14.81;75.02;99951.75;5053867;28;849;-65
2022/11/15 01:40:58;;;;;;;;;;;;;;;14.81;75.31;99949.00;5053734;28;731;-64
2022/11/15 01:43:24;;;;;;;;;;;;;;;14.80;75.25;99942.69;5053559;28;1217;-65
2022/11/15 01:45:53;;;;;;;;;;;;;;;14.81;74.64;99946.25;5053397;28;1894;-65
2022/11/15 01:48:18;;;;;;;;;;;;;;;14.79;74.51;99941.09;5053578;28;893;-64
2022/11/15 01:50:44;;;;;;;;;;;;;;;14.80;74.66;99928.91;5053642;28;924;-65
2022/11/15 01:53:10;;;;;;;;;;;;;;;14.79;75.10;99930.06;5053426;28;1192;-65
2022/11/15 01:55:36;;;;;;;;;;;;;;;14.80;75.04;99928.13;5053601;28;980;-65
2022/11/15 01:58:03;;;;;;;;;;;;;;;14.81;74.31;99929.72;5053200;28;984;-64
2022/11/15 02:00:29;;;;;;;;;;;;;;;14.82;75.24;99923.06;5053467;28;841;-64
2022/11/15 02:02:54;;;;;;;;;;;;;;;14.80;75.25;99923.38;5053212;28;1189;-65
2022/11/15 02:05:19;;;;;;;;;;;;;;;14.79;74.74;99908.03;5053253;28;1890;-65
2022/11/15 02:07:45;;;;;;;;;;;;;;;14.80;74.97;99912.38;5053128;28;824;-65
2022/11/15 02:10:12;;;;;;;;;;;;;;;14.80;75.13;99906.06;5053254;28;896;-65
2022/11/15 02:12:37;;;;;;;;;;;;;;;14.80;75.06;99897.81;5053310;28;781;-65
2022/11/15 02:15:04;;;;;;;;;;;;;;;14.79;74.43;99899.75;5053125;28;1279;-65
2022/11/15 02:17:44;;;;;;;;;;;;;;;14.79;74.92;99902.50;5052154;28;1391;-65
2022/11/15 02:20:28;;;;;;;;;;;;;;;14.80;74.95;99903.31;5053174;28;908;-64
2022/11/15 02:23:11;;;;;;;;;;;;;;;14.80;75.01;99904.09;5053063;28;1255;-65
2022/11/15 02:25:56;;;;;;;;;;;;;;;14.79;74.75;99908.03;5053105;28;1889;-65
2022/11/15 02:28:34;;;;;;;;;;;;;;;14.81;74.61;99899.41;5053004;28;1871;-65
2022/11/15 02:31:22;;;;;;;;;;;;;;;14.80;74.33;99901.34;5053037;28;1031;-64
2022/11/15 02:33:47;;;;;;;;;;;;;;;14.80;74.50;99898.59;5047078;28;1391;-64
2022/11/15 02:36:26;;;;;;;;;;;;;;;14.81;74.32;99893.91;5051415;28;1163;-65
2022/11/15 02:38:55;;;;;;;;;;;;;;;14.81;74.56;99899.41;5052996;28;1019;-65
2022/11/15 02:41:25;;;;;;;;;;;;;;;14.81;75.29;99893.91;5053006;28;1006;-65
2022/11/15 02:43:56;;;;;;;;;;;;;;;14.80;74.71;99893.09;5052909;28;1342;-65
2022/11/15 02:46:21;;;;;;;;;;;;;;;14.83;75.02;99894.38;5052615;28;1914;-65
2022/11/15 02:48:46;;;;;;;;;;;;;;;14.82;74.30;99895.53;5051766;28;951;-65
2022/11/15 02:51:13;;;;;;;;;;;;;;;14.82;75.32;99896.34;5052895;28;876;-64
2022/11/15 02:53:38;;;;;;;;;;;;;;;14.81;75.25;99893.91;5052832;28;1283;-64
2022/11/15 02:56:03;;;;;;;;;;;;;;;14.80;74.72;99893.09;5052631;28;995;-65
2022/11/15 02:58:28;;;;;;;;;;;;;;;14.81;75.16;99888.38;5052905;28;921;-65
2022/11/15 03:00:59;;;;;;;;;;;;;;;14.81;74.92;99882.88;5052770;28;805;-65
2022/11/15 03:03:43;;;;;;;;;;;;;;;14.81;74.96;99883.69;5052657;28;1369;-65
2022/11/15 03:06:20;;;;;;;;;;;;;;;14.80;75.05;99884.81;5052515;28;1922;-65
2022/11/15 03:08:48;;;;;;;;;;;;;;;14.80;75.17;99879.31;5052876;28;797;-65
2022/11/15 03:11:14;;;;;;;;;;;;;;;14.80;75.04;99870.25;5051445;28;916;-65
2022/11/15 03:13:39;;;;;;;;;;;;;;;14.79;74.41;99877.72;5052581;28;1210;-65
2022/11/15 03:16:23;;;;;;;;;;;;;;;14.81;75.17;99880.94;5052502;28;972;-65
2022/11/15 03:18:53;;;;;;;;;;;;;;;14.80;75.22;99876.56;5051343;28;1579;-65
2022/11/15 03:21:20;;;;;;;;;;;;;;;14.79;75.18;99874.97;5052585;28;813;-65
2022/11/15 03:23:47;;;;;;;;;;;;;;;14.80;74.65;99878.53;5052608;28;1216;-65
2022/11/15 03:26:14;;;;;;;;;;;;;;;14.81;74.54;99877.38;5052173;28;1902;-65
2022/11/15 03:28:43;;;;;;;;;;;;;;;14.79;74.79;99872.19;5054257;28;1039;-65
2022/11/15 03:33:57;;;;;;;;;;;;;;;14.79;74.13;99869.44;5055992;28;1298;-64
2022/11/15 03:36:24;;;;;;;;;;;;;;;14.80;75.11;99875.78;5055803;28;976;-64
2022/11/15 03:38:51;;;;;;;;;;;;;;;14.79;74.65;99885.16;5056064;28;845;-65
2022/11/15 03:41:27;;;;;;;;;;;;;;;14.79;74.71;99885.97;5056180;28;869;-65
2022/11/15 03:43:55;;;;;;;;;;;;;;;14.80;74.54;99890.31;5055890;28;1196;-65
2022/11/15 03:46:25;;;;;;;;;;;;;;;14.80;74.38;99895.06;5055555;28;1965;-65
2022/11/15 03:48:53;;;;;;;;;;;;;;;14.79;75.14;99897.00;5055880;28;1059;-65
2022/11/15 03:51:19;;;;;;;;;;;;;;;14.80;74.88;99892.31;5055774;28;999;-65
2022/11/15 03:53:45;;;;;;;;;;;;;;;14.80;75.01;99898.59;5055449;28;1279;-65
2022/11/15 03:56:10;;;;;;;;;;;;;;;14.80;74.74;99892.31;5055506;28;920;-65
2022/11/15 03:58:35;;;;;;;;;;;;;;;14.79;74.31;99890.69;5055725;28;897;-64
2022/11/15 04:01:00;;;;;;;;;;;;;;;14.78;74.69;99892.63;5055576;28;1000;-65
2022/11/15 04:03:25;;;;;;;;;;;;;;;14.79;74.54;99887.91;5055526;28;1237;-64
2022/11/15 04:05:50;;;;;;;;;;;;;;;14.79;75.12;99879.66;5055321;28;1890;-64
2022/11/15 04:08:16;;;;;;;;;;;;;;;14.80;74.62;99881.28;5055437;28;1024;-65
2022/11/15 04:10:41;;;;;;;;;;;;;;;14.80;75.06;99873.78;5055531;28;959;-65
2022/11/15 04:13:06;;;;;;;;;;;;;;;14.80;75.10;99882.06;5055365;28;1207;-65
2022/11/15 04:15:31;;;;;;;;;;;;;;;14.81;74.45;99891.13;5055672;28;753;-65
2022/11/15 04:17:56;;;;;;;;;;;;;;;14.80;74.65;99882.06;5055078;28;943;-64
2022/11/15 04:25:59;;;;;;;;;;;;;;;14.79;74.52;99896.19;5055004;28;1897;-65
2022/11/15 04:28:24;;;;;;;;;;;;;;;14.79;75.20;99902.50;5055144;28;805;-65
2022/11/15 04:30:49;;;;;;;;;;;;;;;14.79;74.33;99896.19;5055176;28;864;-65
2022/11/15 04:38:35;;;;;;;;;;;;;;;14.80;75.27;99892.31;5059796;28;812;-65
2022/11/15 04:41:01;;;;;;;;;;;;;;;14.81;74.93;99893.91;5074091;28;1019;-65
2022/11/15 04:43:26;;;;;;;;;;;;;;;14.80;74.49;99893.09;5074683;28;1239;-65
2022/11/15 04:45:51;;;;;;;;;;;;;;;14.81;75.27;99882.88;5074451;28;2024;-65
2022/11/15 04:48:16;;;;;;;;;;;;;;;14.80;75.10;99889.53;5074764;28;813;-65
2022/11/15 04:50:41;;;;;;;;;;;;;;;14.80;74.99;99884.03;5074659;28;931;-65
2022/11/15 04:53:07;;;;;;;;;;;;;;;14.80;75.16;99879.31;5074519;28;1019;-64
2022/11/15 04:55:32;;;;;;;;;;;;;;;14.81;75.05;99885.63;5074483;28;1231;-64
2022/11/15 04:58:01;;;;;;;;;;;;;;;14.79;75.02;99885.16;5074296;28;939;-65
2022/11/15 05:00:26;;;;;;;;;;;;;;;14.80;74.94;99882.06;5074437;28;1968;-64
2022/11/15 05:05:36;;;;;;;;;;;;;;;14.77;74.44;99868.94;5074210;28;1902;-64
2022/11/15 05:08:01;;;;;;;;;;;;;;;14.77;75.01;99872.53;5074332;28;894;-64
2022/11/15 05:10:26;;;;;;;;;;;;;;;14.78;75.35;99873.34;5074237;28;1018;-64
2022/11/15 05:12:51;;;;;;;;;;;;;;;14.78;75.17;99870.56;5074252;28;921;-64
2022/11/15 05:15:16;;;;;;;;;;;;;;;14.80;74.66;99870.25;5074055;28;1270;-65
2022/11/15 05:17:42;;;;;;;;;;;;;;;14.78;75.28;99865.06;5073830;28;959;-65
2022/11/15 05:20:07;;;;;;;;;;;;;;;14.79;75.09;99869.44;5074040;28;837;-64
2022/11/15 05:22:32;;;;;;;;;;;;;;;14.80;75.07;99865.53;5073772;28;987;-64
2022/11/15 05:24:58;;;;;;;;;;;;;;;14.80;74.51;99870.25;5073555;28;1889;-65
2022/11/15 05:27:23;;;;;;;;;;;;;;;14.80;75.09;99865.53;5073569;28;880;-64
2022/11/15 05:29:48;;;;;;;;;;;;;;;14.80;74.88;99871.03;5073981;28;1031;-65
2022/11/15 05:32:13;;;;;;;;;;;;;;;14.80;75.20;99870.25;5073957;28;862;-64
2022/11/15 05:34:39;;;;;;;;;;;;;;;14.81;74.55;99871.84;5073620;28;1288;-64
2022/11/15 05:37:04;;;;;;;;;;;;;;;14.81;74.53;99867.16;5073701;28;900;-64
2022/11/15 05:39:29;;;;;;;;;;;;;;;14.81;75.34;99863.59;5073800;28;967;-64
2022/11/15 05:41:58;;;;;;;;;;;;;;;14.80;75.42;99862.00;5073704;28;792;-64
2022/11/15 05:44:26;;;;;;;;;;;;;;;14.82;74.96;99865.22;5073267;28;1297;-65
2022/11/15 05:46:53;;;;;;;;;;;;;;;14.81;75.07;99861.66;5072072;28;1901;-64
2022/11/15 05:49:21;;;;;;;;;;;;;;;14.80;74.64;99860.03;5055594;28;1046;-64
2022/11/15 05:51:47;;;;;;;;;;;;;;;14.82;75.30;99856.94;5072467;28;880;-64
2022/11/15 05:54:12;;;;;;;;;;;;;;;14.82;74.58;99857.75;5073582;28;1302;-64
2022/11/15 05:56:37;;;;;;;;;;;;;;;14.83;74.79;99858.56;5073248;28;975;-64
2022/11/15 05:59:03;;;;;;;;;;;;;;;14.83;75.30;99858.56;5073519;28;1015;-64
2022/11/15 06:01:29;;;;;;;;;;;;;;;14.82;75.55;99860.50;5073430;28;979;-65
2022/11/15 06:03:54;;;;;;;;;;;;;;;14.83;74.61;99862.13;5073194;28;1203;-64
2022/11/15 06:06:20;;;;;;;;;;;;;;;14.84;75.44;99855.50;5073214;28;1960;-65
2022/11/15 06:08:45;;;;;;;;;;;;;;;14.84;75.38;99854.69;5072972;28;990;-65
2022/11/15 06:11:10;;;;;;;;;;;;;;;14.86;75.28;99855.19;5073272;28;1039;-64
2022/11/15 06:13:35;;;;;;;;;;;;;;;14.85;75.73;99861.81;5073323;28;1301;-65
2022/11/15 06:16:00;;;;;;;;;;;;;;;14.84;75.98;99855.50;5073001;28;813;-65
2022/11/15 06:18:26;;;;;;;;;;;;;;;14.84;75.42;99852.75;5072830;28;940;-65
2022/11/15 06:20:51;;;;;;;;;;;;;;;14.85;75.39;99848.03;5073175;28;999;-65
2022/11/15 06:23:16;;;;;;;;;;;;;;;14.85;75.80;99846.09;5073205;28;797;-65
2022/11/15 06:25:41;;;;;;;;;;;;;;;14.61;75.63;99821.81;5072879;28;1965;-65
2022/11/15 06:28:06;;;;;;;;;;;;;;;14.87;75.89;99843.84;5073089;28;929;-65
2022/11/15 06:30:32;;;;;;;;;;;;;;;14.89;75.93;99846.25;5073102;28;859;-65
2022/11/15 06:33:04;;;;;;;;;;;;;;;14.89;75.38;99855.31;5073044;28;971;-65
2022/11/15 06:35:29;;;;;;;;;;;;;;;14.89;75.49;99849.81;5072978;28;1183;-65
2022/11/15 06:37:55;;;;;;;;;;;;;;;14.88;75.85;99855.66;5072833;28;793;-65
2022/11/15 06:40:20;;;;;;;;;;;;;;;14.88;75.87;99853.72;5072987;28;1042;-65
2022/11/15 06:42:45;;;;;;;;;;;;;;;14.87;75.72;99846.59;5072958;28;987;-65
2022/11/15 06:45:10;;;;;;;;;;;;;;;14.87;75.98;99854.06;5073324;28;1894;-65
2022/11/15 06:47:35;;;;;;;;;;;;;;;14.88;75.12;99852.91;5072625;28;801;-65
2022/11/15 06:50:01;;;;;;;;;;;;;;;14.86;75.88;99858.75;5073178;28;1012;-65
2022/11/15 06:52:26;;;;;;;;;;;;;;;14.88;75.54;99861.19;5072825;28;952;-65
2022/11/15 06:54:51;;;;;;;;;;;;;;;14.88;75.06;99850.16;5073001;28;1270;-65
2022/11/15 06:57:16;;;;;;;;;;;;;;;14.89;75.88;99854.50;5072592;28;1031;-65
2022/11/15 06:59:41;;;;;;;;;;;;;;;14.88;75.39;99856.47;5072838;28;900;-64
2022/11/15 07:02:11;;;;;;;;;;;;;;;14.90;75.88;99853.38;5072770;28;976;-65
2022/11/15 07:04:36;;;;;;;;;;;;;;;14.87;75.35;99852.09;5076055;28;1267;-65
2022/11/15 07:07:01;;;;;;;;;;;;;;;14.90;75.82;99856.94;5076320;28;1951;-65
2022/11/15 07:09:27;;;;;;;;;;;;;;;14.90;75.42;99856.94;5076552;28;868;-65
2022/11/15 07:11:52;;;;;;;;;;;;;;;14.91;76.03;99860.50;5076544;28;995;-65
2022/11/15 07:14:17;;;;;;;;;;;;;;;14.90;76.36;99856.13;5076441;28;1194;-65
2022/11/15 07:16:42;;;;;;;;;;;;;;;14.90;75.52;99864.41;5076088;28;809;-65
2022/11/15 07:19:08;;;;;;;;;;;;;;;14.91;75.49;99866.03;5076411;28;959;-65
2022/11/15 07:21:33;;;;;;;;;;;;;;;14.91;76.22;99871.53;5076356;28;991;-65
2022/11/15 07:23:58;;;;;;;;;;;;;;;14.89;76.12;99862.78;5076177;28;1267;-65
2022/11/15 07:26:23;;;;;;;;;;;;;;;14.90;75.95;99865.22;5075992;28;1886;-65
2022/11/15 07:28:48;;;;;;;;;;;;;;;14.89;76.13;99866.34;5076218;28;939;-65
2022/11/15 07:31:13;;;;;;;;;;;;;;;14.89;75.51;99871.03;5076148;28;987;-65
2022/11/15 07:33:39;;;;;;;;;;;;;;;14.89;75.36;99879.31;5075915;28;1334;-65
2022/11/15 07:36:05;;;;;;;;;;;;;;;14.89;75.91;99880.13;5076064;28;848;-65
2022/11/15 07:38:31;;;;;;;;;;;;;;;14.88;76.09;99878.53;5075937;28;1436;-65
2022/11/15 07:41:00;;;;;;;;;;;;;;;14.89;76.21;99871.03;5076058;28;823;-65
2022/11/15 07:43:27;;;;;;;;;;;;;;;14.88;76.06;99878.53;5076412;28;1298;-65
2022/11/15 07:45:53;;;;;;;;;;;;;;;14.88;75.66;99867.50;5075548;28;1890;-65
2022/11/15 07:48:18;;;;;;;;;;;;;;;14.88;75.73;99878.53;5075977;28;944;-65
2022/11/15 07:50:43;;;;;;;;;;;;;;;14.88;75.31;99878.53;5075783;28;861;-65
2022/11/15 07:53:09;;;;;;;;;;;;;;;14.89;75.39;99882.06;5075790;28;1027;-65
2022/11/15 07:55:34;;;;;;;;;;;;;;;14.88;75.83;99886.78;5075707;28;1183;-65
2022/11/15 07:58:00;;;;;;;;;;;;;;;14.88;75.65;99880.47;5075476;28;797;-65
2022/11/15 08:00:25;;;;;;;;;;;;;;;14.87;76.22;99876.09;5075595;28;1019;-65
2022/11/15 08:02:50;;;;;;;;;;;;;;;14.89;75.92;99880.13;5075608;28;932;-65
2022/11/15 08:05:16;;;;;;;;;;;;;;;14.87;76.07;99879.66;5075677;28;1949;-65
2022/11/15 08:07:41;;;;;;;;;;;;;;;14.88;75.95;99873.03;5075242;28;1005;-65
2022/11/15 08:10:07;;;;;;;;;;;;;;;14.89;75.43;99873.81;5075751;28;698;-65
2022/11/15 08:12:32;;;;;;;;;;;;;;;14.87;76.20;99874.16;5075484;28;875;-65
2022/11/15 08:14:58;;;;;;;;;;;;;;;14.87;75.29;99881.59;5074177;28;1238;-65
2022/11/15 08:17:24;;;;;;;;;;;;;;;14.88;75.93;99883.22;5075067;28;947;-65
2022/11/15 08:19:49;;;;;;;;;;;;;;;14.88;75.48;99889.56;5075325;28;789;-65
2022/11/15 08:22:14;;;;;;;;;;;;;;;14.86;75.89;99883.53;5075376;28;864;-65
2022/11/15 08:24:39;;;;;;;;;;;;;;;14.87;75.98;99889.88;5075159;28;1185;-65
2022/11/15 08:27:05;;;;;;;;;;;;;;;14.87;75.44;99892.63;5074916;28;1902;-65
2022/11/15 08:29:30;;;;;;;;;;;;;;;14.87;76.03;99887.13;5075155;28;947;-65
2022/11/15 08:31:55;;;;;;;;;;;;;;;14.87;75.10;99892.63;5074983;28;1026;-65
2022/11/15 08:34:21;;;;;;;;;;;;;;;14.86;76.03;99891.81;5075241;28;1286;-65
2022/11/15 08:36:46;;;;;;;;;;;;;;;14.87;75.80;99889.88;5074618;28;956;-65
2022/11/15 08:39:12;;;;;;;;;;;;;;;14.86;75.81;99885.50;5074961;28;832;-65
2022/11/15 08:41:38;;;;;;;;;;;;;;;14.87;75.43;99881.59;5074862;28;867;-65
2022/11/15 08:44:03;;;;;;;;;;;;;;;14.87;75.37;99870.59;5074818;28;1299;-65
2022/11/15 08:46:28;;;;;;;;;;;;;;;14.86;75.75;99860.69;5074376;28;1963;-65
2022/11/15 08:48:53;;;;;;;;;;;;;;;14.85;76.08;99861.81;5074839;28;1031;-65
2022/11/15 08:51:18;;;;;;;;;;;;;;;14.85;75.12;99851.63;5074662;28;979;-65
2022/11/15 08:53:44;;;;;;;;;;;;;;;14.87;75.96;99859.56;5074656;28;1366;-65
2022/11/15 08:56:10;;;;;;;;;;;;;;;14.86;75.42;99856.00;5074452;28;877;-65
2022/11/15 08:58:35;;;;;;;;;;;;;;;14.86;75.43;99858.75;5074492;28;1042;-65
2022/11/15 09:01:00;;;;;;;;;;;;;;;14.85;76.07;99851.63;5074413;28;857;-65
2022/11/15 09:03:25;;;;;;;;;;;;;;;14.85;75.90;99840.59;5074377;28;1298;-65
2022/11/15 09:05:55;;;;;;;;;;;;;;;14.86;75.34;99852.44;5074146;28;2033;-65
2022/11/15 09:08:20;;;;;;;;;;;;;;;14.87;75.88;99845.78;5074433;28;829;-65
2022/11/15 09:10:45;;;;;;;;;;;;;;;14.86;75.31;99850.47;5074250;28;979;-64
2022/11/15 09:13:10;;;;;;;;;;;;;;;14.87;75.82;99851.28;5074290;28;781;-65
2022/11/15 09:15:35;;;;;;;;;;;;;;;14.85;75.14;99848.84;5074025;28;1195;-65
2022/11/15 09:18:00;;;;;;;;;;;;;;;14.84;75.14;99854.69;5074088;28;858;-65
2022/11/15 09:20:26;;;;;;;;;;;;;;;14.84;75.94;99854.69;5074109;28;869;-65
2022/11/15 09:22:51;;;;;;;;;;;;;;;14.84;74.97;99861.00;5074023;28;903;-65
2022/11/15 09:25:16;;;;;;;;;;;;;;;14.85;75.21;99856.31;5073852;28;1902;-65
2022/11/15 09:27:41;;;;;;;;;;;;;;;14.84;75.15;99855.50;5073535;28;793;-65
2022/11/15 09:30:06;;;;;;;;;;;;;;;14.85;75.75;99864.56;5073814;28;979;-65
2022/11/15 09:32:32;;;;;;;;;;;;;;;14.84;75.33;99858.25;5073808;28;1224;-65
2022/11/15 09:34:57;;;;;;;;;;;;;;;14.85;76.10;99868.16;5073589;28;1297;-65
2022/11/15 09:37:22;;;;;;;;;;;;;;;14.86;75.62;99879.97;5073582;28;698;-65
2022/11/15 09:39:47;;;;;;;;;;;;;;;14.85;75.81;99876.41;5073697;28;944;-65
2022/11/15 09:42:24;;;;;;;;;;;;;;;14.85;75.21;99875.59;5073767;28;923;-65
2022/11/15 09:45:08;;;;;;;;;;;;;;;14.84;75.67;99876.72;5073453;28;1205;-65
2022/11/15 09:47:36;;;;;;;;;;;;;;;14.84;75.76;99869.28;5073526;28;912;-65
2022/11/15 09:50:07;;;;;;;;;;;;;;;14.84;75.21;99862.94;5073516;28;884;-65
2022/11/15 09:52:33;;;;;;;;;;;;;;;14.85;75.77;99872.84;5073655;28;1269;-65
2022/11/15 09:54:59;;;;;;;;;;;;;;;14.84;75.71;99869.28;5072989;28;1241;-65
2022/11/15 09:57:24;;;;;;;;;;;;;;;14.84;75.51;99876.72;5073223;28;1047;-65
2022/11/15 10:00:03;;;;;;;;;;;;;;;14.84;75.65;99868.47;5073421;28;1011;-65
2022/11/15 10:02:31;;;;;;;;;;;;;;;14.84;75.14;99877.53;5073575;28;797;-65
2022/11/15 10:04:56;;;;;;;;;;;;;;;14.85;75.55;99857.13;5073217;28;1274;-65
2022/11/15 10:07:27;;;;;;;;;;;;;;;14.85;75.11;99856.31;5073058;28;1956;-65
2022/11/15 10:09:58;;;;;;;;;;;;;;;14.84;75.18;99851.94;5073346;28;889;-65
2022/11/15 10:12:24;;;;;;;;;;;;;;;14.85;75.82;99851.63;5073466;28;867;-65
2022/11/15 10:14:55;;;;;;;;;;;;;;;14.84;75.68;99850.00;5073263;28;1215;-65
2022/11/15 10:17:20;;;;;;;;;;;;;;;14.85;74.94;99848.84;5073476;28;816;-65
2022/11/15 10:20:05;;;;;;;;;;;;;;;14.86;75.25;99849.66;5073250;28;801;-65
2022/11/15 10:22:35;;;;;;;;;;;;;;;14.86;75.51;99844.16;5073461;28;939;-65
2022/11/15 10:25:12;;;;;;;;;;;;;;;14.86;75.60;99838.66;5073150;28;1336;-65
2022/11/15 10:27:38;;;;;;;;;;;;;;;14.86;75.70;99833.94;5073053;28;884;-65
2022/11/15 10:30:04;;;;;;;;;;;;;;;14.86;74.89;99833.13;5073161;28;983;-65
2022/11/15 10:32:32;;;;;;;;;;;;;;;14.85;75.00;99832.31;5073075;28;1005;-65
2022/11/15 10:34:57;;;;;;;;;;;;;;;14.85;75.69;99826.81;5107310;22;2784;-64
2022/11/15 10:37:29;;;;;;;;;;;;;;;14.85;75.50;99817.75;5052733;28;880;-64
2022/11/15 10:40:05;;;;;;;;;;;;;;;14.85;75.40;99809.47;5070993;28;915;-64
2022/11/15 10:42:30;;;;;;;;;;;;;;;14.84;75.63;99822.44;5077181;28;919;-64
2022/11/15 10:44:55;;;;;;;;;;;;;;;14.84;75.59;99811.41;5057026;28;1289;-63
2022/11/15 10:47:22;;;;;;;;;;;;;;;14.85;75.81;99815.78;5056693;28;1913;-63
2022/11/15 10:50:10;;;;;;;;;;;;;;;14.85;74.90;99810.28;5057070;28;841;-65
2022/11/15 10:52:36;;;;;;;;;;;;;;;14.86;75.39;99811.09;5053708;28;1124;-64
2022/11/15 10:55:16;;;;;;;;;;;;;;;14.86;75.50;99808.34;5056800;28;1713;-64
2022/11/15 10:57:48;;;;;;;;;;;;;;;14.86;75.07;99794.56;5056487;28;1008;-64
2022/11/15 11:00:19;;;;;;;;;;;;;;;14.87;75.68;99801.69;5056911;28;888;-64
2022/11/15 11:02:57;;;;;;;;;;;;;;;14.88;75.13;99797.81;5056813;28;975;-64
2022/11/15 11:05:40;;;;;;;;;;;;;;;14.86;75.09;99789.06;5056789;28;1953;-64
2022/11/15 11:08:20;;;;;;;;;;;;;;;14.87;75.35;99790.66;5056385;28;995;-64
2022/11/15 11:10:58;;;;;;;;;;;;;;;14.86;75.04;99780.78;5056770;28;995;-63
2022/11/15 11:13:43;;;;;;;;;;;;;;;14.86;74.85;99776.09;5056585;28;1201;-63
2022/11/15 11:16:14;;;;;;;;;;;;;;;14.86;75.13;99781.59;5056016;28;1146;-64
2022/11/15 11:18:42;;;;;;;;;;;;;;;14.88;75.15;99781.28;5056429;28;801;-64
2022/11/15 11:21:11;;;;;;;;;;;;;;;14.85;75.48;99768.13;5056413;28;873;-64
2022/11/15 11:23:43;;;;;;;;;;;;;;;14.85;75.47;99774.47;5056334;28;1218;-64
2022/11/15 11:26:11;;;;;;;;;;;;;;;14.88;75.02;99778.53;5056041;28;1948;-64
2022/11/15 11:28:36;;;;;;;;;;;;;;;14.86;75.19;99775.28;5056317;28;892;-64
2022/11/15 11:31:25;;;;;;;;;;;;;;;14.86;75.53;99772.53;5056105;28;884;-64
2022/11/15 11:33:50;;;;;;;;;;;;;;;14.87;75.62;99776.91;5056215;28;1262;-64
2022/11/15 11:36:25;;;;;;;;;;;;;;;14.86;75.72;99776.09;5055930;28;983;-64
2022/11/15 11:38:57;;;;;;;;;;;;;;;14.86;75.19;99769.75;5056194;28;984;-64
2022/11/15 11:41:23;;;;;;;;;;;;;;;14.86;74.96;99767.00;5055985;28;845;-64
2022/11/15 11:44:02;;;;;;;;;;;;;;;14.86;75.20;99776.09;5056042;28;1197;-64
2022/11/15 11:46:35;;;;;;;;;;;;;;;14.87;74.95;99754.84;5055762;28;1977;-64
2022/11/15 11:49:08;;;;;;;;;;;;;;;14.87;75.29;99760.38;5055780;28;864;-64
2022/11/15 11:51:41;;;;;;;;;;;;;;;14.87;75.15;99761.19;5055901;28;880;-64
2022/11/15 11:54:12;;;;;;;;;;;;;;;14.87;75.64;99749.34;5055734;28;1205;-63
2022/11/15 11:56:39;;;;;;;;;;;;;;;14.87;74.81;99746.59;5055535;28;821;-64
2022/11/15 11:59:16;;;;;;;;;;;;;;;14.88;74.74;99739.94;5055694;28;1038;-63
2022/11/15 12:01:42;;;;;;;;;;;;;;;14.88;75.67;99738.00;5055663;28;908;-65
2022/11/15 12:04:14;;;;;;;;;;;;;;;14.88;75.05;99737.19;5055502;28;1186;-63
2022/11/15 12:06:44;;;;;;;;;;;;;;;14.87;75.39;99732.81;5055330;28;1890;-64
2022/11/15 12:09:21;;;;;;;;;;;;;;;14.89;75.50;99725.00;5055567;28;991;-64
2022/11/15 12:11:56;;;;;;;;;;;;;;;14.88;75.41;99723.41;5055585;28;869;-64
2022/11/15 12:14:27;;;;;;;;;;;;;;;14.88;75.03;99713.19;5055419;28;1207;-64
2022/11/15 12:16:52;;;;;;;;;;;;;;;14.89;75.50;99719.50;5054970;28;975;-64
2022/11/15 12:19:17;;;;;;;;;;;;;;;14.89;74.99;99713.97;5055335;28;924;-64
2022/11/15 12:22:01;;;;;;;;;;;;;;;14.89;75.64;99716.75;5055401;28;971;-64
2022/11/15 12:24:30;;;;;;;;;;;;;;;14.89;74.99;99708.47;5055275;28;1287;-64
2022/11/15 12:26:59;;;;;;;;;;;;;;;14.90;74.78;99707.34;5054914;28;1959;-64
2022/11/15 12:29:32;;;;;;;;;;;;;;;14.89;75.08;99698.25;5055146;28;982;-64
2022/11/15 12:31:59;;;;;;;;;;;;;;;14.89;74.95;99701.00;5055148;28;868;-64
2022/11/15 12:34:24;;;;;;;;;;;;;;;14.90;75.41;99699.06;5055164;28;1203;-64
2022/11/15 12:36:50;;;;;;;;;;;;;;;14.91;75.28;99689.66;5055147;28;710;-64
2022/11/15 12:39:17;;;;;;;;;;;;;;;14.89;75.48;99692.75;5054856;28;1102;-64
2022/11/15 12:41:44;;;;;;;;;;;;;;;14.89;75.34;99678.97;5055356;28;857;-64
2022/11/15 12:44:29;;;;;;;;;;;;;;;14.89;74.60;99678.97;5054785;28;1313;-63
2022/11/15 12:46:57;;;;;;;;;;;;;;;14.90;75.03;99664.06;5054276;28;1983;-64
2022/11/15 12:49:22;;;;;;;;;;;;;;;14.90;74.79;99655.78;5054769;28;817;-64
2022/11/15 12:51:47;;;;;;;;;;;;;;;14.91;75.32;99660.16;5054754;28;847;-64
2022/11/15 12:54:22;;;;;;;;;;;;;;;14.92;74.82;99663.72;5054496;28;1268;-64
2022/11/15 12:57:02;;;;;;;;;;;;;;;14.91;75.32;99662.94;5054546;28;825;-64
2022/11/15 12:59:46;;;;;;;;;;;;;;;14.91;75.31;99662.94;5054540;28;892;-64
2022/11/15 13:02:49;;;;;;;;;;;;;;;14.92;75.45;99655.47;5053910;28;826;-63
2022/11/15 13:05:22;;;;;;;;;;;;;;;14.92;74.66;99650.78;5031906;28;1963;-64
2022/11/15 13:07:47;;;;;;;;;;;;;;;14.93;74.92;99646.06;5031996;28;911;-64
2022/11/15 13:10:12;;;;;;;;;;;;;;;14.95;75.03;99643.81;5043383;28;1088;-64
2022/11/15 13:12:40;;;;;;;;;;;;;;;14.96;75.33;99643.47;5054409;28;844;-64
2022/11/15 13:15:11;;;;;;;;;;;;;;;14.97;74.59;99649.78;5054102;28;1312;-64
2022/11/15 13:17:39;;;;;;;;;;;;;;;14.96;75.25;99639.91;5054004;28;1000;-64
2022/11/15 13:20:08;;;;;;;;;;;;;;;14.96;75.41;99640.72;5054152;28;908;-65
2022/11/15 13:23:02;;;;;;;;;;;;;;;14.98;75.35;99640.38;5054111;28;892;-65